sensor_id;sensor_type;location;lat;lon;timestamp;pressure;altitude;pressure_sealevel;temperature;humidity
36254;BME280;22291;52.250;21.228;2022-12-05T00:01:31;101254.00;;;0.18;90.92
36254;BME280;22291;52.250;21.228;2022-12-05T00:04:05;101251.86;;;0.18;90.87
36254;BME280;22291;52.250;21.228;2022-12-05T00:06:37;101253.13;;;0.15;90.88
36254;BME280;22291;52.250;21.228;2022-12-05T00:09:19;101250.84;;;0.19;90.84
36254;BME280;22291;52.250;21.228;2022-12-05T00:11:47;101247.32;;;0.09;90.90
36254;BME280;22291;52.250;21.228;2022-12-05T00:14:18;101248.86;;;0.08;90.98
36254;BME280;22291;52.250;21.228;2022-12-05T00:16:48;101243.23;;;0.07;91.01
36254;BME280;22291;52.250;21.228;2022-12-05T00:19:18;101242.95;;;0.06;91.03
36254;BME280;22291;52.250;21.228;2022-12-05T00:21:47;101251.21;;;0.07;91.08
36254;BME280;22291;52.250;21.228;2022-12-05T00:24:16;101250.41;;;0.06;91.15
36254;BME280;22291;52.250;21.228;2022-12-05T00:26:54;101248.06;;;0.07;91.07
36254;BME280;22291;52.250;21.228;2022-12-05T00:29:23;101255.52;;;0.08;91.04
36254;BME280;22291;52.250;21.228;2022-12-05T00:31:52;101254.39;;;0.06;91.03
36254;BME280;22291;52.250;21.228;2022-12-05T00:34:20;101259.72;;;0.06;91.02
36254;BME280;22291;52.250;21.228;2022-12-05T00:36:53;101254.39;;;0.06;91.08
36254;BME280;22291;52.250;21.228;2022-12-05T00:39:26;101250.93;;;0.06;91.09
36254;BME280;22291;52.250;21.228;2022-12-05T00:41:55;101247.75;;;0.06;91.15
36254;BME280;22291;52.250;21.228;2022-12-05T00:45:54;101247.70;;;0.13;91.18
36254;BME280;22291;52.250;21.228;2022-12-05T00:48:26;101242.14;;;0.05;91.09
36254;BME280;22291;52.250;21.228;2022-12-05T00:51:31;101255.69;;;0.13;91.19
36254;BME280;22291;52.250;21.228;2022-12-05T00:54:04;101250.62;;;0.05;91.10
36254;BME280;22291;52.250;21.228;2022-12-05T00:56:31;101250.93;;;0.06;91.18
36254;BME280;22291;52.250;21.228;2022-12-05T00:59:07;101249.81;;;0.04;91.03
36254;BME280;22291;52.250;21.228;2022-12-05T01:01:41;101251.88;;;0.02;90.83
36254;BME280;22291;52.250;21.228;2022-12-05T01:04:21;101246.45;;;-0.01;90.81
36254;BME280;22291;52.250;21.228;2022-12-05T01:06:53;101255.77;;;-0.01;90.91
36254;BME280;22291;52.250;21.228;2022-12-05T01:09:25;101267.53;;;0.01;90.94
36254;BME280;22291;52.250;21.228;2022-12-05T01:11:54;101256.81;;;-0.02;90.79
36254;BME280;22291;52.250;21.228;2022-12-05T01:14:26;101256.19;;;-0.04;90.85
36254;BME280;22291;52.250;21.228;2022-12-05T01:16:57;101255.91;;;-0.05;90.96
36254;BME280;22291;52.250;21.228;2022-12-05T01:19:31;101244.84;;;-0.02;90.93
36254;BME280;22291;52.250;21.228;2022-12-05T01:21:59;101228.05;;;-0.02;90.95
36254;BME280;22291;52.250;21.228;2022-12-05T01:24:28;101234.70;;;-0.02;90.90
36254;BME280;22291;52.250;21.228;2022-12-05T01:27:03;101227.56;;;-0.02;90.91
36254;BME280;22291;52.250;21.228;2022-12-05T01:29:29;101229.91;;;-0.03;90.81
36254;BME280;22291;52.250;21.228;2022-12-05T01:31:58;101228.48;;;-0.05;90.67
36254;BME280;22291;52.250;21.228;2022-12-05T01:35:26;101236.94;;;0.01;90.67
36254;BME280;22291;52.250;21.228;2022-12-05T01:38:03;101229.52;;;-0.06;90.78
36254;BME280;22291;52.250;21.228;2022-12-05T01:40:36;101226.13;;;-0.04;90.90
36254;BME280;22291;52.250;21.228;2022-12-05T01:43:05;101226.23;;;-0.02;90.95
36254;BME280;22291;52.250;21.228;2022-12-05T01:45:42;101220.70;;;0.00;90.89
36254;BME280;22291;52.250;21.228;2022-12-05T01:48:20;101209.53;;;0.01;90.79
36254;BME280;22291;52.250;21.228;2022-12-05T01:50:56;101214.84;;;0.01;90.67
36254;BME280;22291;52.250;21.228;2022-12-05T01:53:30;101208.94;;;-0.02;90.53
36254;BME280;22291;52.250;21.228;2022-12-05T01:56:06;101204.84;;;-0.04;90.50
36254;BME280;22291;52.250;21.228;2022-12-05T01:58:35;101202.72;;;-0.05;90.64
36254;BME280;22291;52.250;21.228;2022-12-05T02:01:05;101193.09;;;-0.06;90.66
36254;BME280;22291;52.250;21.228;2022-12-05T02:03:33;101206.48;;;-0.03;90.72
36254;BME280;22291;52.250;21.228;2022-12-05T02:06:13;101203.30;;;-0.03;90.73
36254;BME280;22291;52.250;21.228;2022-12-05T02:08:41;101200.95;;;-0.02;90.64
36254;BME280;22291;52.250;21.228;2022-12-05T02:11:14;101207.30;;;-0.03;90.42
36254;BME280;22291;52.250;21.228;2022-12-05T02:16:48;101213.35;;;-0.05;90.45
36254;BME280;22291;52.250;21.228;2022-12-05T02:20:31;101205.23;;;-0.01;90.52
36254;BME280;22291;52.250;21.228;2022-12-05T02:23:12;101198.63;;;-0.07;90.52
36254;BME280;22291;52.250;21.228;2022-12-05T02:29:25;101210.42;;;-0.12;90.39
36254;BME280;22291;52.250;21.228;2022-12-05T02:31:50;101196.22;;;-0.15;90.26
36254;BME280;22291;52.250;21.228;2022-12-05T02:34:23;101192.16;;;-0.18;90.39
36254;BME280;22291;52.250;21.228;2022-12-05T02:36:59;101191.85;;;-0.19;90.44
36254;BME280;22291;52.250;21.228;2022-12-05T02:40:04;101186.04;;;-0.18;90.57
36254;BME280;22291;52.250;21.228;2022-12-05T02:43:00;101201.99;;;-0.18;90.51
36254;BME280;22291;52.250;21.228;2022-12-05T02:45:34;101185.41;;;-0.21;90.46
36254;BME280;22291;52.250;21.228;2022-12-05T02:48:09;101185.41;;;-0.21;90.51
36254;BME280;22291;52.250;21.228;2022-12-05T02:50:41;101193.70;;;-0.20;90.61
36254;BME280;22291;52.250;21.228;2022-12-05T02:53:10;101184.09;;;-0.21;90.54
36254;BME280;22291;52.250;21.228;2022-12-05T02:55:42;101183.80;;;-0.22;90.57
36254;BME280;22291;52.250;21.228;2022-12-05T02:58:16;101173.69;;;-0.22;90.58
36254;BME280;22291;52.250;21.228;2022-12-05T03:00:47;101179.08;;;-0.20;90.68
36254;BME280;22291;52.250;21.228;2022-12-05T03:03:17;101176.20;;;-0.18;90.63
36254;BME280;22291;52.250;21.228;2022-12-05T03:08:39;101177.22;;;-0.19;90.50
36254;BME280;22291;52.250;21.228;2022-12-05T03:11:06;101159.66;;;-0.20;90.51
36254;BME280;22291;52.250;21.228;2022-12-05T03:13:39;101162.32;;;-0.20;90.56
36254;BME280;22291;52.250;21.228;2022-12-05T03:16:15;101156.48;;;-0.20;90.58
36254;BME280;22291;52.250;21.228;2022-12-05T03:18:49;101145.63;;;-0.18;90.59
36254;BME280;22291;52.250;21.228;2022-12-05T03:24:02;101134.39;;;-0.20;90.49
36254;BME280;22291;52.250;21.228;2022-12-05T03:38:08;101119.23;;;-0.29;90.59
36254;BME280;22291;52.250;21.228;2022-12-05T03:40:52;101114.94;;;-0.30;90.61
36254;BME280;22291;52.250;21.228;2022-12-05T03:43:29;101125.99;;;-0.33;90.56
36254;BME280;22291;52.250;21.228;2022-12-05T03:46:20;101128.37;;;-0.34;90.65
36254;BME280;22291;52.250;21.228;2022-12-05T03:49:09;101144.32;;;-0.34;90.71
36254;BME280;22291;52.250;21.228;2022-12-05T03:54:23;101143.27;;;-0.33;90.69
36254;BME280;22291;52.250;21.228;2022-12-05T03:57:01;101149.92;;;-0.33;90.65
36254;BME280;22291;52.250;21.228;2022-12-05T03:59:39;101160.55;;;-0.33;90.68
36254;BME280;22291;52.250;21.228;2022-12-05T04:02:10;101164.54;;;-0.33;90.68
36254;BME280;22291;52.250;21.228;2022-12-05T04:04:45;101167.52;;;-0.32;90.72
36254;BME280;22291;52.250;21.228;2022-12-05T04:07:14;101174.44;;;-0.31;90.79
36254;BME280;22291;52.250;21.228;2022-12-05T04:09:48;101174.02;;;-0.28;90.81
36254;BME280;22291;52.250;21.228;2022-12-05T04:12:21;101180.77;;;-0.25;90.77
36254;BME280;22291;52.250;21.228;2022-12-05T04:14:52;101183.70;;;-0.24;90.63
36254;BME280;22291;52.250;21.228;2022-12-05T04:17:55;101177.89;;;-0.24;90.54
36254;BME280;22291;52.250;21.228;2022-12-05T04:20:31;101176.04;;;-0.23;90.48
36254;BME280;22291;52.250;21.228;2022-12-05T04:23:15;101175.52;;;-0.23;90.46
36254;BME280;22291;52.250;21.228;2022-12-05T04:28:50;101172.64;;;-0.21;90.42
36254;BME280;22291;52.250;21.228;2022-12-05T04:31:24;101156.48;;;-0.20;90.26
36254;BME280;22291;52.250;21.228;2022-12-05T04:34:05;101159.88;;;-0.22;90.15
36254;BME280;22291;52.250;21.228;2022-12-05T04:36:47;101144.20;;;-0.21;90.19
36254;BME280;22291;52.250;21.228;2022-12-05T04:39:33;101138.87;;;-0.21;90.15
36254;BME280;22291;52.250;21.228;2022-12-05T04:42:13;101139.41;;;-0.21;90.12
36254;BME280;22291;52.250;21.228;2022-12-05T04:44:42;101154.24;;;-0.23;89.87
36254;BME280;22291;52.250;21.228;2022-12-05T04:47:11;101137.17;;;-0.24;89.86
36254;BME280;22291;52.250;21.228;2022-12-05T04:49:41;101137.17;;;-0.24;89.95
36254;BME280;22291;52.250;21.228;2022-12-05T04:52:10;101131.85;;;-0.24;89.87
36254;BME280;22291;52.250;21.228;2022-12-05T04:54:41;101141.38;;;-0.26;89.82
36254;BME280;22291;52.250;21.228;2022-12-05T04:57:22;101136.30;;;-0.27;89.80
36254;BME280;22291;52.250;21.228;2022-12-05T05:00:09;101129.13;;;-0.27;89.84
36254;BME280;22291;52.250;21.228;2022-12-05T05:02:44;101133.11;;;-0.27;89.95
36254;BME280;22291;52.250;21.228;2022-12-05T05:05:13;101128.70;;;-0.24;89.93
36254;BME280;22291;52.250;21.228;2022-12-05T05:07:44;101123.66;;;-0.23;89.90
36254;BME280;22291;52.250;21.228;2022-12-05T05:10:15;101125.52;;;-0.23;89.83
36254;BME280;22291;52.250;21.228;2022-12-05T05:12:44;101130.41;;;-0.20;89.86
36254;BME280;22291;52.250;21.228;2022-12-05T05:15:11;101128.25;;;-0.21;89.62
36254;BME280;22291;52.250;21.228;2022-12-05T05:17:37;101127.38;;;-0.24;89.24
36254;BME280;22291;52.250;21.228;2022-12-05T05:20:05;101129.66;;;-0.27;89.31
36254;BME280;22291;52.250;21.228;2022-12-05T05:22:55;101134.13;;;-0.28;89.40
36254;BME280;22291;52.250;21.228;2022-12-05T05:25:23;101129.77;;;-0.31;89.37
36254;BME280;22291;52.250;21.228;2022-12-05T05:27:52;101131.62;;;-0.32;89.38
36254;BME280;22291;52.250;21.228;2022-12-05T05:30:22;101141.42;;;-0.32;89.39
36254;BME280;22291;52.250;21.228;2022-12-05T05:32:49;101142.75;;;-0.32;89.51
36254;BME280;22291;52.250;21.228;2022-12-05T05:35:16;101146.03;;;-0.30;89.58
36254;BME280;22291;52.250;21.228;2022-12-05T05:37:43;101147.36;;;-0.30;89.46
36254;BME280;22291;52.250;21.228;2022-12-05T05:40:11;101148.16;;;-0.30;89.48
36254;BME280;22291;52.250;21.228;2022-12-05T05:42:47;101144.98;;;-0.29;89.46
36254;BME280;22291;52.250;21.228;2022-12-05T05:45:15;101132.00;;;-0.28;89.37
36254;BME280;22291;52.250;21.228;2022-12-05T05:47:42;101161.14;;;-0.31;89.31
36254;BME280;22291;52.250;21.228;2022-12-05T05:50:10;101148.38;;;-0.31;89.29
36254;BME280;22291;52.250;21.228;2022-12-05T05:52:37;101151.25;;;-0.33;89.31
36254;BME280;22291;52.250;21.228;2022-12-05T05:55:05;101155.55;;;-0.32;89.43
36254;BME280;22291;52.250;21.228;2022-12-05T05:57:33;101161.46;;;-0.30;89.37
36254;BME280;22291;52.250;21.228;2022-12-05T06:00:02;101164.64;;;-0.30;89.32
36254;BME280;22291;52.250;21.228;2022-12-05T06:02:33;101168.11;;;-0.30;89.34
36254;BME280;22291;52.250;21.228;2022-12-05T06:05:01;101170.77;;;-0.30;89.42
36254;BME280;22291;52.250;21.228;2022-12-05T06:07:28;101163.31;;;-0.30;89.39
36254;BME280;22291;52.250;21.228;2022-12-05T06:09:55;101167.38;;;-0.28;89.42
36254;BME280;22291;52.250;21.228;2022-12-05T06:12:21;101170.34;;;-0.27;89.46
36254;BME280;22291;52.250;21.228;2022-12-05T06:14:48;101164.22;;;-0.27;89.37
36254;BME280;22291;52.250;21.228;2022-12-05T06:17:16;101155.50;;;-0.25;89.42
36254;BME280;22291;52.250;21.228;2022-12-05T06:19:42;101156.83;;;-0.25;89.42
36254;BME280;22291;52.250;21.228;2022-12-05T06:22:09;101153.96;;;-0.24;89.41
36254;BME280;22291;52.250;21.228;2022-12-05T06:24:35;101160.98;;;-0.20;89.42
36254;BME280;22291;52.250;21.228;2022-12-05T06:27:01;101156.41;;;-0.22;89.34
36254;BME280;22291;52.250;21.228;2022-12-05T06:29:28;101155.15;;;-0.20;89.40
36254;BME280;22291;52.250;21.228;2022-12-05T06:31:54;101156.58;;;-0.17;89.34
36254;BME280;22291;52.250;21.228;2022-12-05T06:34:21;101147.27;;;-0.17;89.28
36254;BME280;22291;52.250;21.228;2022-12-05T06:36:47;101150.73;;;-0.16;89.35
36254;BME280;22291;52.250;21.228;2022-12-05T06:39:13;101146.53;;;-0.15;89.39
36254;BME280;22291;52.250;21.228;2022-12-05T06:41:40;101141.49;;;-0.14;89.28
36254;BME280;22291;52.250;21.228;2022-12-05T06:44:06;101139.14;;;-0.13;89.37
36254;BME280;22291;52.250;21.228;2022-12-05T06:46:35;101134.63;;;-0.12;89.30
36254;BME280;22291;52.250;21.228;2022-12-05T06:49:02;101139.73;;;-0.11;89.19
36254;BME280;22291;52.250;21.228;2022-12-05T06:51:28;101142.48;;;-0.08;89.26
36254;BME280;22291;52.250;21.228;2022-12-05T06:53:55;101142.27;;;-0.07;89.29
36254;BME280;22291;52.250;21.228;2022-12-05T06:56:22;101145.22;;;-0.06;89.13
36254;BME280;22291;52.250;21.228;2022-12-05T06:58:49;101149.42;;;-0.07;89.02
36254;BME280;22291;52.250;21.228;2022-12-05T07:01:20;101148.92;;;-0.07;89.01
36254;BME280;22291;52.250;21.228;2022-12-05T07:03:52;101155.79;;;-0.08;89.04
36254;BME280;22291;52.250;21.228;2022-12-05T07:06:18;101153.72;;;-0.06;89.09
36254;BME280;22291;52.250;21.228;2022-12-05T07:08:44;101146.48;;;-0.08;88.94
36254;BME280;22291;52.250;21.228;2022-12-05T07:11:12;101146.38;;;-0.11;88.97
36254;BME280;22291;52.250;21.228;2022-12-05T07:13:38;101145.15;;;-0.08;89.08
36254;BME280;22291;52.250;21.228;2022-12-05T07:16:06;101134.72;;;-0.10;89.08
36254;BME280;22291;52.250;21.228;2022-12-05T07:18:35;101132.66;;;-0.08;89.22
36254;BME280;22291;52.250;21.228;2022-12-05T07:21:09;101130.31;;;-0.07;89.16
36254;BME280;22291;52.250;21.228;2022-12-05T07:23:37;101134.58;;;-0.06;89.06
36254;BME280;22291;52.250;21.228;2022-12-05T07:26:06;101142.03;;;-0.05;89.12
36254;BME280;22291;52.250;21.228;2022-12-05T07:28:34;101140.70;;;-0.05;89.03
36254;BME280;22291;52.250;21.228;2022-12-05T07:31:04;101147.35;;;-0.05;89.21
36254;BME280;22291;52.250;21.228;2022-12-05T07:33:33;101147.45;;;-0.03;89.15
36254;BME280;22291;52.250;21.228;2022-12-05T07:36:02;101139.84;;;0.01;89.30
36254;BME280;22291;52.250;21.228;2022-12-05T07:38:31;101143.09;;;0.03;89.28
36254;BME280;22291;52.250;21.228;2022-12-05T07:41:02;101141.12;;;0.08;89.34
36254;BME280;22291;52.250;21.228;2022-12-05T07:43:31;101142.83;;;0.11;89.32
36254;BME280;22291;52.250;21.228;2022-12-05T07:46:03;101144.25;;;0.14;89.29
36254;BME280;22291;52.250;21.228;2022-12-05T07:48:32;101138.93;;;0.14;89.00
36254;BME280;22291;52.250;21.228;2022-12-05T07:51:00;101132.70;;;0.11;88.71
36254;BME280;22291;52.250;21.228;2022-12-05T07:53:29;101135.06;;;0.10;88.79
36254;BME280;22291;52.250;21.228;2022-12-05T07:55:59;101132.92;;;0.09;88.80
36254;BME280;22291;52.250;21.228;2022-12-05T07:58:30;101138.55;;;0.10;88.86
36254;BME280;22291;52.250;21.228;2022-12-05T08:01:13;101135.37;;;0.11;88.92
36254;BME280;22291;52.250;21.228;2022-12-05T08:03:42;101132.18;;;0.11;88.79
36254;BME280;22291;52.250;21.228;2022-12-05T08:06:12;101135.37;;;0.11;88.86
36254;BME280;22291;52.250;21.228;2022-12-05T08:08:42;101130.95;;;0.14;88.97
36254;BME280;22291;52.250;21.228;2022-12-05T08:11:15;101125.91;;;0.15;89.00
36254;BME280;22291;52.250;21.228;2022-12-05T08:13:48;101119.03;;;0.16;88.98
36254;BME280;22291;52.250;21.228;2022-12-05T08:16:19;101119.34;;;0.17;88.83
36254;BME280;22291;52.250;21.228;2022-12-05T08:18:52;101118.51;;;0.17;88.75
36254;BME280;22291;52.250;21.228;2022-12-05T08:21:22;101111.27;;;0.15;88.68
36254;BME280;22291;52.250;21.228;2022-12-05T08:23:54;101112.91;;;0.16;88.65
36254;BME280;22291;52.250;21.228;2022-12-05T08:26:28;101118.30;;;0.18;88.83
36254;BME280;22291;52.250;21.228;2022-12-05T08:28:59;101120.15;;;0.18;88.76
36254;BME280;22291;52.250;21.228;2022-12-05T08:31:30;101128.44;;;0.19;88.75
36254;BME280;22291;52.250;21.228;2022-12-05T08:34:00;101120.15;;;0.18;88.71
36254;BME280;22291;52.250;21.228;2022-12-05T08:36:30;101123.61;;;0.18;88.64
36254;BME280;22291;52.250;21.228;2022-12-05T08:38:59;101123.83;;;0.17;88.71
36254;BME280;22291;52.250;21.228;2022-12-05T08:41:30;101124.66;;;0.17;88.83
36254;BME280;22291;52.250;21.228;2022-12-05T08:44:03;101116.47;;;0.19;88.77
36254;BME280;22291;52.250;21.228;2022-12-05T08:46:33;101107.65;;;0.18;88.76
36254;BME280;22291;52.250;21.228;2022-12-05T08:49:03;101118.08;;;0.20;88.82
36254;BME280;22291;52.250;21.228;2022-12-05T08:51:30;101116.47;;;0.19;88.76
36254;BME280;22291;52.250;21.228;2022-12-05T08:53:57;101117.70;;;0.16;88.60
36254;BME280;22291;52.250;21.228;2022-12-05T08:56:26;101115.57;;;0.16;88.74
36254;BME280;22291;52.250;21.228;2022-12-05T08:58:52;101119.93;;;0.20;88.92
36254;BME280;22291;52.250;21.228;2022-12-05T09:01:22;101127.70;;;0.21;88.93
36254;BME280;22291;52.250;21.228;2022-12-05T09:03:50;101121.94;;;0.24;89.01
36254;BME280;22291;52.250;21.228;2022-12-05T09:06:19;101114.77;;;0.25;88.81
36254;BME280;22291;52.250;21.228;2022-12-05T09:08:54;101123.27;;;0.24;88.80
36254;BME280;22291;52.250;21.228;2022-12-05T09:11:24;101123.77;;;0.24;88.76
36254;BME280;22291;52.250;21.228;2022-12-05T09:13:55;101115.08;;;0.26;88.92
36254;BME280;22291;52.250;21.228;2022-12-05T09:16:28;101118.33;;;0.28;88.89
36254;BME280;22291;52.250;21.228;2022-12-05T09:18:58;101111.95;;;0.29;88.72
36254;BME280;22291;52.250;21.228;2022-12-05T09:21:28;101100.59;;;0.31;88.75
36254;BME280;22291;52.250;21.228;2022-12-05T09:24:02;101096.08;;;0.31;88.82
36254;BME280;22291;52.250;21.228;2022-12-05T09:26:30;101093.20;;;0.33;88.76
36254;BME280;22291;52.250;21.228;2022-12-05T09:28:57;101094.52;;;0.33;88.81
36254;BME280;22291;52.250;21.228;2022-12-05T09:31:25;101100.12;;;0.34;88.63
36254;BME280;22291;52.250;21.228;2022-12-05T09:33:54;101085.48;;;0.34;88.64
36254;BME280;22291;52.250;21.228;2022-12-05T09:36:23;101084.09;;;0.31;88.54
36254;BME280;22291;52.250;21.228;2022-12-05T09:38:54;101082.83;;;0.34;88.66
36254;BME280;22291;52.250;21.228;2022-12-05T09:47:45;101080.63;;;0.40;88.85
36254;BME280;22291;52.250;21.228;2022-12-05T09:55:47;101061.55;;;0.43;89.03
36254;BME280;22291;52.250;21.228;2022-12-05T10:01:02;101049.84;;;0.44;88.75
36254;BME280;22291;52.250;21.228;2022-12-05T10:03:44;101046.16;;;0.45;88.77
36254;BME280;22291;52.250;21.228;2022-12-05T10:06:17;101052.82;;;0.45;88.61
36254;BME280;22291;52.250;21.228;2022-12-05T10:09:00;101044.53;;;0.44;88.62
36254;BME280;22291;52.250;21.228;2022-12-05T10:11:55;101046.75;;;0.47;88.79
36254;BME280;22291;52.250;21.228;2022-12-05T10:14:29;101047.95;;;0.51;89.09
36254;BME280;22291;52.250;21.228;2022-12-05T10:17:32;101043.34;;;0.59;89.11
36254;BME280;22291;52.250;21.228;2022-12-05T10:22:49;101038.52;;;0.67;88.96
36254;BME280;22291;52.250;21.228;2022-12-05T10:25:19;101034.00;;;0.68;88.67
36254;BME280;22291;52.250;21.228;2022-12-05T10:27:50;101033.78;;;0.69;88.40
36254;BME280;22291;52.250;21.228;2022-12-05T10:30:22;101029.73;;;0.67;88.40
36254;BME280;22291;52.250;21.228;2022-12-05T10:32:58;101027.65;;;0.69;88.32
36254;BME280;22291;52.250;21.228;2022-12-05T10:35:34;101034.09;;;0.70;88.31
36254;BME280;22291;52.250;21.228;2022-12-05T10:38:22;101031.06;;;0.67;88.02
36254;BME280;22291;52.250;21.228;2022-12-05T10:40:58;101035.80;;;0.65;88.11
36254;BME280;22291;52.250;21.228;2022-12-05T10:43:30;101039.63;;;0.69;88.31
36254;BME280;22291;52.250;21.228;2022-12-05T10:46:00;101037.50;;;0.68;88.26
36254;BME280;22291;52.250;21.228;2022-12-05T10:48:33;101029.78;;;0.69;88.24
36254;BME280;22291;52.250;21.228;2022-12-05T10:51:04;101022.38;;;0.71;88.35
36254;BME280;22291;52.250;21.228;2022-12-05T10:56:41;101012.61;;;0.74;88.11
36254;BME280;22291;52.250;21.228;2022-12-05T10:59:20;101021.58;;;0.71;87.83
36254;BME280;22291;52.250;21.228;2022-12-05T11:01:48;101013.98;;;0.65;87.70
36254;BME280;22291;52.250;21.228;2022-12-05T11:06:59;101012.12;;;0.66;87.98
36254;BME280;22291;52.250;21.228;2022-12-05T11:12:12;101002.38;;;0.60;87.91
36254;BME280;22291;52.250;21.228;2022-12-05T11:15:00;101005.05;;;0.60;88.08
36254;BME280;22291;52.250;21.228;2022-12-05T11:17:34;101008.52;;;0.60;88.16
36254;BME280;22291;52.250;21.228;2022-12-05T11:22:54;100999.72;;;0.60;88.06
36254;BME280;22291;52.250;21.228;2022-12-05T11:25:29;100990.90;;;0.59;88.15
36254;BME280;22291;52.250;21.228;2022-12-05T11:33:35;100977.76;;;0.55;88.03
36254;BME280;22291;52.250;21.228;2022-12-05T11:36:18;100976.42;;;0.55;88.24
36254;BME280;22291;52.250;21.228;2022-12-05T11:38:47;100972.70;;;0.56;88.24
36254;BME280;22291;52.250;21.228;2022-12-05T11:50:36;100947.19;;;0.67;88.29
36254;BME280;22291;52.250;21.228;2022-12-05T11:52:53;100958.11;;;0.68;88.37
36254;BME280;22291;52.250;21.228;2022-12-05T11:56:02;100953.09;;;0.69;88.28
36254;BME280;22291;52.250;21.228;2022-12-05T12:01:33;100935.78;;;0.69;88.31
36254;BME280;22291;52.250;21.228;2022-12-05T12:07:38;100942.13;;;0.68;88.13
36254;BME280;22291;52.250;21.228;2022-12-05T12:13:18;100949.67;;;0.71;88.18
36254;BME280;22291;52.250;21.228;2022-12-05T12:19:35;100956.06;;;0.70;88.13
36254;BME280;22291;52.250;21.228;2022-12-05T12:22:16;100949.90;;;0.69;88.17
36254;BME280;22291;52.250;21.228;2022-12-05T12:28:23;100939.83;;;0.71;88.29
36254;BME280;22291;52.250;21.228;2022-12-05T12:33:54;100940.44;;;0.73;88.22
36254;BME280;22291;52.250;21.228;2022-12-05T12:36:57;100934.58;;;0.74;88.27
36254;BME280;22291;52.250;21.228;2022-12-05T12:42:22;100928.58;;;0.79;88.18
36254;BME280;22291;52.250;21.228;2022-12-05T12:51:03;100924.73;;;0.74;87.95
36254;BME280;22291;52.250;21.228;2022-12-05T12:56:39;100919.13;;;0.73;88.06
36254;BME280;22291;52.250;21.228;2022-12-05T13:02:03;100924.23;;;0.75;88.17
36254;BME280;22291;52.250;21.228;2022-12-05T13:05:07;100920.51;;;0.76;88.34
36254;BME280;22291;52.250;21.228;2022-12-05T13:07:48;100922.42;;;0.78;88.38
36254;BME280;22291;52.250;21.228;2022-12-05T13:10:33;100925.96;;;0.81;88.28
36254;BME280;22291;52.250;21.228;2022-12-05T13:13:04;100924.10;;;0.82;88.34
36254;BME280;22291;52.250;21.228;2022-12-05T13:15:35;100928.17;;;0.84;88.29
36254;BME280;22291;52.250;21.228;2022-12-05T13:18:11;100923.66;;;0.85;88.11
36254;BME280;22291;52.250;21.228;2022-12-05T13:20:39;100914.06;;;0.84;88.18
36254;BME280;22291;52.250;21.228;2022-12-05T13:23:13;100912.77;;;0.86;88.28
36254;BME280;22291;52.250;21.228;2022-12-05T13:25:43;100918.22;;;0.91;88.16
36254;BME280;22291;52.250;21.228;2022-12-05T13:28:24;100911.34;;;0.93;88.11
36254;BME280;22291;52.250;21.228;2022-12-05T13:30:52;100912.14;;;0.93;88.03
36254;BME280;22291;52.250;21.228;2022-12-05T13:33:29;100908.45;;;0.95;87.85
36254;BME280;22291;52.250;21.228;2022-12-05T13:36:06;100911.87;;;0.92;87.81
36254;BME280;22291;52.250;21.228;2022-12-05T13:39:05;100907.92;;;0.95;87.87
36254;BME280;22291;52.250;21.228;2022-12-05T13:41:52;100907.92;;;0.95;87.86
36254;BME280;22291;52.250;21.228;2022-12-05T13:44:54;100909.02;;;0.97;87.80
36254;BME280;22291;52.250;21.228;2022-12-05T13:50:34;100900.23;;;0.96;87.76
36254;BME280;22291;52.250;21.228;2022-12-05T13:53:57;100901.56;;;0.96;87.70
36254;BME280;22291;52.250;21.228;2022-12-05T13:55:59;100899.13;;;0.95;87.67
36254;BME280;22291;52.250;21.228;2022-12-05T14:04:22;100892.55;;;0.97;87.86
36254;BME280;22291;52.250;21.228;2022-12-05T14:06:55;100890.15;;;0.98;87.80
36254;BME280;22291;52.250;21.228;2022-12-05T14:09:46;100890.68;;;0.98;87.68
36254;BME280;22291;52.250;21.228;2022-12-05T14:14:58;100890.72;;;1.00;87.64
36254;BME280;22291;52.250;21.228;2022-12-05T14:17:40;100895.20;;;0.97;87.56
36254;BME280;22291;52.250;21.228;2022-12-05T14:32:37;100872.02;;;0.86;88.16
36254;BME280;22291;52.250;21.228;2022-12-05T14:40:42;100867.72;;;0.85;88.07
36254;BME280;22291;52.250;21.228;2022-12-05T14:43:32;100870.03;;;0.81;88.01
36254;BME280;22291;52.250;21.228;2022-12-05T14:46:05;100858.27;;;0.80;88.04
36254;BME280;22291;52.250;21.228;2022-12-05T14:48:41;100866.48;;;0.78;88.11
36254;BME280;22291;52.250;21.228;2022-12-05T14:54:11;100839.59;;;0.77;88.37
36254;BME280;22291;52.250;21.228;2022-12-05T14:56:42;100839.59;;;0.77;88.37
36254;BME280;22291;52.250;21.228;2022-12-05T14:59:31;100838.26;;;0.77;88.27
36254;BME280;22291;52.250;21.228;2022-12-05T15:02:03;100833.16;;;0.76;88.28
36254;BME280;22291;52.250;21.228;2022-12-05T15:04:45;100828.36;;;0.75;88.27
36254;BME280;22291;52.250;21.228;2022-12-05T15:07:25;100821.45;;;0.77;88.36
36254;BME280;22291;52.250;21.228;2022-12-05T15:10:48;100826.50;;;0.76;88.44
36254;BME280;22291;52.250;21.228;2022-12-05T15:13:07;100830.50;;;0.76;88.34
36254;BME280;22291;52.250;21.228;2022-12-05T15:15:43;100828.06;;;0.74;88.43
36254;BME280;22291;52.250;21.228;2022-12-05T15:18:50;100826.20;;;0.74;88.42
36254;BME280;22291;52.250;21.228;2022-12-05T15:21:41;100833.96;;;0.76;88.50
36254;BME280;22291;52.250;21.228;2022-12-05T15:24:17;100826.73;;;0.74;88.48
36254;BME280;22291;52.250;21.228;2022-12-05T15:26:49;100833.91;;;0.73;88.51
36254;BME280;22291;52.250;21.228;2022-12-05T15:29:23;100823.77;;;0.73;88.55
36254;BME280;22291;52.250;21.228;2022-12-05T15:32:03;100816.53;;;0.71;88.70
36254;BME280;22291;52.250;21.228;2022-12-05T15:37:50;100813.59;;;0.70;88.68
36254;BME280;22291;52.250;21.228;2022-12-05T15:40:23;100820.48;;;0.68;88.77
36254;BME280;22291;52.250;21.228;2022-12-05T15:42:55;100825.58;;;0.70;88.81
36254;BME280;22291;52.250;21.228;2022-12-05T15:45:27;100821.51;;;0.67;88.87